sensor_id;sensor_type;location;lat;lon;timestamp;pressure;altitude;pressure_sealevel;temperature;humidity
6599;BME280;3335;43.198;27.918;2023-03-01T00:01:29;148862.97;;;6.36;100.00
6599;BME280;3335;43.198;27.918;2023-03-01T00:03:56;148862.97;;;6.36;100.00
6599;BME280;3335;43.198;27.918;2023-03-01T00:06:26;148861.72;;;6.35;100.00
6599;BME280;3335;43.198;27.918;2023-03-01T00:08:53;148853.00;;;6.32;100.00
6599;BME280;3335;43.198;27.918;2023-03-01T00:11:22;148857.97;;;6.34;100.00
6599;BME280;3335;43.198;27.918;2023-03-01T00:13:51;148745.94;;;5.88;100.00
6599;BME280;3335;43.198;27.918;2023-03-01T00:16:20;148862.97;;;6.36;100.00
6599;BME280;3335;43.198;27.918;2023-03-01T00:18:48;148862.97;;;6.36;100.00
6599;BME280;3335;43.198;27.918;2023-03-01T00:21:16;148865.41;;;6.37;100.00
6599;BME280;3335;43.198;27.918;2023-03-01T00:23:44;148861.72;;;6.35;100.00
6599;BME280;3335;43.198;27.918;2023-03-01T00:26:13;148853.00;;;6.32;100.00
6599;BME280;3335;43.198;27.918;2023-03-01T00:28:40;148853.00;;;6.32;100.00
6599;BME280;3335;43.198;27.918;2023-03-01T00:31:09;148861.72;;;6.35;100.00
6599;BME280;3335;43.198;27.918;2023-03-01T00:33:37;148860.47;;;6.35;100.00
6599;BME280;3335;43.198;27.918;2023-03-01T00:36:04;148850.50;;;6.31;100.00
6599;BME280;3335;43.198;27.918;2023-03-01T00:38:34;148846.75;;;6.29;100.00
6599;BME280;3335;43.198;27.918;2023-03-01T00:41:08;148843.00;;;6.28;100.00
6599;BME280;3335;43.198;27.918;2023-03-01T00:43:35;148833.06;;;6.24;100.00
6599;BME280;3335;43.198;27.918;2023-03-01T00:46:03;148823.09;;;6.20;100.00
6599;BME280;3335;43.198;27.918;2023-03-01T00:48:31;148820.59;;;6.19;100.00
6599;BME280;3335;43.198;27.918;2023-03-01T00:51:04;148596.53;;;5.27;100.00
6599;BME280;3335;43.198;27.918;2023-03-01T00:53:31;148800.69;;;6.10;100.00
6599;BME280;3335;43.198;27.918;2023-03-01T00:55:58;148789.50;;;6.06;100.00
6599;BME280;3335;43.198;27.918;2023-03-01T00:58:27;148763.34;;;5.95;100.00
6599;BME280;3335;43.198;27.918;2023-03-01T01:00:54;148717.25;;;5.77;100.00
6599;BME280;3335;43.198;27.918;2023-03-01T01:03:22;148760.84;;;5.94;100.00
6599;BME280;3335;43.198;27.918;2023-03-01T01:05:50;148763.34;;;5.95;100.00
6599;BME280;3335;43.198;27.918;2023-03-01T01:08:17;148755.91;;;5.92;100.00
6599;BME280;3335;43.198;27.918;2023-03-01T01:10:45;148748.41;;;5.89;100.00
6599;BME280;3335;43.198;27.918;2023-03-01T01:13:13;148725.94;;;5.80;100.00
6599;BME280;3335;43.198;27.918;2023-03-01T01:15:41;148745.94;;;5.88;100.00
6599;BME280;3335;43.198;27.918;2023-03-01T01:18:08;148730.94;;;5.82;100.00
6599;BME280;3335;43.198;27.918;2023-03-01T01:20:35;148733.44;;;5.83;100.00
6599;BME280;3335;43.198;27.918;2023-03-01T01:23:05;148745.94;;;5.88;100.00
6599;BME280;3335;43.198;27.918;2023-03-01T01:25:34;148740.91;;;5.86;100.00
6599;BME280;3335;43.198;27.918;2023-03-01T01:28:01;148735.94;;;5.84;100.00
6599;BME280;3335;43.198;27.918;2023-03-01T01:30:29;148729.69;;;5.82;100.00
6599;BME280;3335;43.198;27.918;2023-03-01T01:32:57;148739.66;;;5.86;100.00
6599;BME280;3335;43.198;27.918;2023-03-01T01:35:24;148738.41;;;5.85;100.00
6599;BME280;3335;43.198;27.918;2023-03-01T01:37:51;148743.44;;;5.87;100.00
6599;BME280;3335;43.198;27.918;2023-03-01T01:40:18;148743.44;;;5.87;100.00
6599;BME280;3335;43.198;27.918;2023-03-01T01:42:45;148753.41;;;5.91;100.00
6599;BME280;3335;43.198;27.918;2023-03-01T01:45:28;148750.91;;;5.90;100.00
6599;BME280;3335;43.198;27.918;2023-03-01T01:47:59;148763.34;;;5.95;100.00
6599;BME280;3335;43.198;27.918;2023-03-01T01:50:27;148760.84;;;5.94;100.00
6599;BME280;3335;43.198;27.918;2023-03-01T01:53:06;148708.56;;;5.73;100.00
6599;BME280;3335;43.198;27.918;2023-03-01T01:55:36;148768.34;;;5.97;100.00
6599;BME280;3335;43.198;27.918;2023-03-01T01:58:05;148773.31;;;5.99;100.00
6599;BME280;3335;43.198;27.918;2023-03-01T02:00:35;148780.78;;;6.02;100.00
6599;BME280;3335;43.198;27.918;2023-03-01T02:03:10;148773.31;;;5.99;100.00
6599;BME280;3335;43.198;27.918;2023-03-01T02:05:42;148758.41;;;5.93;100.00
6599;BME280;3335;43.198;27.918;2023-03-01T02:08:12;148753.41;;;5.91;100.00
6599;BME280;3335;43.198;27.918;2023-03-01T02:10:41;148765.84;;;5.96;100.00
6599;BME280;3335;43.198;27.918;2023-03-01T02:13:08;148763.34;;;5.95;100.00
6599;BME280;3335;43.198;27.918;2023-03-01T02:15:37;148763.34;;;5.95;100.00
6599;BME280;3335;43.198;27.918;2023-03-01T02:18:07;148765.84;;;5.96;100.00
6599;BME280;3335;43.198;27.918;2023-03-01T02:20:41;148778.31;;;6.01;100.00
6599;BME280;3335;43.198;27.918;2023-03-01T02:23:11;148767.09;;;5.97;100.00
6599;BME280;3335;43.198;27.918;2023-03-01T02:25:45;148768.34;;;5.97;100.00
6599;BME280;3335;43.198;27.918;2023-03-01T02:28:25;148777.06;;;6.01;100.00
6599;BME280;3335;43.198;27.918;2023-03-01T02:30:53;148738.41;;;5.85;100.00
6599;BME280;3335;43.198;27.918;2023-03-01T02:33:39;148770.84;;;5.98;100.00
6599;BME280;3335;43.198;27.918;2023-03-01T02:36:08;148783.31;;;6.03;100.00
6599;BME280;3335;43.198;27.918;2023-03-01T02:38:36;148787.00;;;6.05;100.00
6599;BME280;3335;43.198;27.918;2023-03-01T02:41:05;148775.81;;;6.00;100.00
6599;BME280;3335;43.198;27.918;2023-03-01T02:43:35;148778.31;;;6.01;100.00
6599;BME280;3335;43.198;27.918;2023-03-01T02:46:05;148784.50;;;6.04;100.00
6599;BME280;3335;43.198;27.918;2023-03-01T02:48:40;148779.56;;;6.02;100.00
6599;BME280;3335;43.198;27.918;2023-03-01T02:51:18;148778.31;;;6.01;100.00
6599;BME280;3335;43.198;27.918;2023-03-01T02:53:58;148785.75;;;6.04;100.00
6599;BME280;3335;43.198;27.918;2023-03-01T02:56:28;148798.19;;;6.09;100.00
6599;BME280;3335;43.198;27.918;2023-03-01T02:58:57;148789.50;;;6.06;100.00
6599;BME280;3335;43.198;27.918;2023-03-01T03:01:27;148788.25;;;6.05;100.00
6599;BME280;3335;43.198;27.918;2023-03-01T03:04:03;148780.78;;;6.02;100.00
6599;BME280;3335;43.198;27.918;2023-03-01T03:06:30;148779.56;;;6.02;100.00
6599;BME280;3335;43.198;27.918;2023-03-01T03:08:57;148784.50;;;6.04;100.00
6599;BME280;3335;43.198;27.918;2023-03-01T03:11:24;148794.50;;;6.08;100.00
6599;BME280;3335;43.198;27.918;2023-03-01T03:13:51;148795.69;;;6.08;100.00
6599;BME280;3335;43.198;27.918;2023-03-01T03:16:20;148789.50;;;6.06;100.00
6599;BME280;3335;43.198;27.918;2023-03-01T03:18:47;148753.41;;;5.91;100.00
6599;BME280;3335;43.198;27.918;2023-03-01T03:21:14;148792.00;;;6.07;100.00
6599;BME280;3335;43.198;27.918;2023-03-01T03:23:41;148794.50;;;6.08;100.00
6599;BME280;3335;43.198;27.918;2023-03-01T03:26:09;148785.75;;;6.04;100.00
6599;BME280;3335;43.198;27.918;2023-03-01T03:28:40;148787.00;;;6.05;100.00
6599;BME280;3335;43.198;27.918;2023-03-01T03:31:08;148793.25;;;6.07;100.00
6599;BME280;3335;43.198;27.918;2023-03-01T03:33:36;148787.00;;;6.05;100.00
6599;BME280;3335;43.198;27.918;2023-03-01T03:36:04;148795.69;;;6.08;100.00
6599;BME280;3335;43.198;27.918;2023-03-01T03:38:31;148805.69;;;6.12;100.00
6599;BME280;3335;43.198;27.918;2023-03-01T03:41:02;148800.69;;;6.10;100.00
6599;BME280;3335;43.198;27.918;2023-03-01T03:43:31;148793.25;;;6.07;100.00
6599;BME280;3335;43.198;27.918;2023-03-01T03:45:59;148808.16;;;6.13;100.00
6599;BME280;3335;43.198;27.918;2023-03-01T03:48:27;148663.75;;;5.55;100.00
6599;BME280;3335;43.198;27.918;2023-03-01T03:50:56;148770.84;;;5.98;100.00
6599;BME280;3335;43.198;27.918;2023-03-01T03:53:24;148770.84;;;5.98;100.00
6599;BME280;3335;43.198;27.918;2023-03-01T03:55:53;148764.59;;;5.96;100.00
6599;BME280;3335;43.198;27.918;2023-03-01T03:58:21;148790.75;;;6.06;100.00
6599;BME280;3335;43.198;27.918;2023-03-01T04:00:51;148783.31;;;6.03;100.00
6599;BME280;3335;43.198;27.918;2023-03-01T04:03:19;148772.06;;;5.99;100.00
6599;BME280;3335;43.198;27.918;2023-03-01T04:05:47;148775.81;;;6.00;100.00
6599;BME280;3335;43.198;27.918;2023-03-01T04:08:17;148787.00;;;6.05;100.00
6599;BME280;3335;43.198;27.918;2023-03-01T04:10:47;148738.41;;;5.85;100.00
6599;BME280;3335;43.198;27.918;2023-03-01T04:13:19;148780.78;;;6.02;100.00
6599;BME280;3335;43.198;27.918;2023-03-01T04:15:48;148759.66;;;5.94;100.00
6599;BME280;3335;43.198;27.918;2023-03-01T04:18:18;148769.59;;;5.98;100.00
6599;BME280;3335;43.198;27.918;2023-03-01T04:20:45;148770.84;;;5.98;100.00
6599;BME280;3335;43.198;27.918;2023-03-01T04:23:14;148769.59;;;5.98;100.00
6599;BME280;3335;43.198;27.918;2023-03-01T04:25:48;148661.25;;;5.54;100.00
6599;BME280;3335;43.198;27.918;2023-03-01T04:28:19;148783.31;;;6.03;100.00
6599;BME280;3335;43.198;27.918;2023-03-01T04:30:46;148780.78;;;6.02;100.00
6599;BME280;3335;43.198;27.918;2023-03-01T04:33:13;148785.75;;;6.04;100.00
6599;BME280;3335;43.198;27.918;2023-03-01T04:35:40;148788.25;;;6.05;100.00
6599;BME280;3335;43.198;27.918;2023-03-01T04:38:07;148789.50;;;6.06;100.00
6599;BME280;3335;43.198;27.918;2023-03-01T04:40:34;148793.25;;;6.07;100.00
6599;BME280;3335;43.198;27.918;2023-03-01T04:43:03;148780.78;;;6.02;100.00
6599;BME280;3335;43.198;27.918;2023-03-01T04:45:32;148780.78;;;6.02;100.00
6599;BME280;3335;43.198;27.918;2023-03-01T04:48:00;148782.03;;;6.03;100.00
6599;BME280;3335;43.198;27.918;2023-03-01T04:50:27;148783.31;;;6.03;100.00
6599;BME280;3335;43.198;27.918;2023-03-01T04:52:54;148788.25;;;6.05;100.00
6599;BME280;3335;43.198;27.918;2023-03-01T04:55:24;148798.19;;;6.09;100.00
6599;BME280;3335;43.198;27.918;2023-03-01T04:57:51;148801.94;;;6.11;100.00
6599;BME280;3335;43.198;27.918;2023-03-01T05:00:20;148810.66;;;6.14;100.00
6599;BME280;3335;43.198;27.918;2023-03-01T05:02:49;148815.66;;;6.17;100.00
6599;BME280;3335;43.198;27.918;2023-03-01T05:05:20;148813.16;;;6.15;100.00
6599;BME280;3335;43.198;27.918;2023-03-01T05:07:54;148809.41;;;6.14;100.00
6599;BME280;3335;43.198;27.918;2023-03-01T05:10:22;148819.34;;;6.18;100.00
6599;BME280;3335;43.198;27.918;2023-03-01T05:12:49;148796.94;;;6.09;100.00
6599;BME280;3335;43.198;27.918;2023-03-01T05:15:17;148803.19;;;6.11;100.00
6599;BME280;3335;43.198;27.918;2023-03-01T05:17:48;148798.19;;;6.09;100.00
6599;BME280;3335;43.198;27.918;2023-03-01T05:20:15;148808.16;;;6.13;100.00
6599;BME280;3335;43.198;27.918;2023-03-01T05:22:42;148805.69;;;6.12;100.00
6599;BME280;3335;43.198;27.918;2023-03-01T05:25:09;148796.94;;;6.09;100.00
6599;BME280;3335;43.198;27.918;2023-03-01T05:27:39;148801.94;;;6.11;100.00
6599;BME280;3335;43.198;27.918;2023-03-01T05:30:07;148800.69;;;6.10;100.00
6599;BME280;3335;43.198;27.918;2023-03-01T05:32:43;148728.44;;;5.81;100.00
6599;BME280;3335;43.198;27.918;2023-03-01T05:35:14;148798.19;;;6.09;100.00
6599;BME280;3335;43.198;27.918;2023-03-01T05:37:42;148808.16;;;6.13;100.00
6599;BME280;3335;43.198;27.918;2023-03-01T05:40:10;148830.56;;;6.23;100.00
6599;BME280;3335;43.198;27.918;2023-03-01T05:42:42;148805.69;;;6.12;100.00
6599;BME280;3335;43.198;27.918;2023-03-01T05:45:10;148811.91;;;6.15;100.00
6599;BME280;3335;43.198;27.918;2023-03-01T05:47:39;148608.97;;;5.33;100.00
6599;BME280;3335;43.198;27.918;2023-03-01T05:50:12;148800.69;;;6.10;100.00
6599;BME280;3335;43.198;27.918;2023-03-01T05:52:40;148788.25;;;6.05;100.00
6599;BME280;3335;43.198;27.918;2023-03-01T05:55:07;148816.91;;;6.17;100.00
6599;BME280;3335;43.198;27.918;2023-03-01T05:57:34;148819.34;;;6.18;100.00
6599;BME280;3335;43.198;27.918;2023-03-01T06:00:01;148843.00;;;6.28;100.00
6599;BME280;3335;43.198;27.918;2023-03-01T06:02:28;148845.50;;;6.29;100.00
6599;BME280;3335;43.198;27.918;2023-03-01T06:04:55;148828.09;;;6.22;100.00
6599;BME280;3335;43.198;27.918;2023-03-01T06:07:24;148835.56;;;6.25;100.00
6599;BME280;3335;43.198;27.918;2023-03-01T06:09:51;148848.00;;;6.30;100.00
6599;BME280;3335;43.198;27.918;2023-03-01T06:12:18;148850.50;;;6.31;100.00
6599;BME280;3335;43.198;27.918;2023-03-01T06:14:45;148844.25;;;6.28;100.00
6599;BME280;3335;43.198;27.918;2023-03-01T06:17:13;148857.97;;;6.34;100.00
6599;BME280;3335;43.198;27.918;2023-03-01T06:19:40;148856.72;;;6.33;100.00
6599;BME280;3335;43.198;27.918;2023-03-01T06:22:07;148875.41;;;6.41;100.00
6599;BME280;3335;43.198;27.918;2023-03-01T06:24:36;148882.88;;;6.44;100.00
6599;BME280;3335;43.198;27.918;2023-03-01T06:27:03;148877.88;;;6.42;100.00
6599;BME280;3335;43.198;27.918;2023-03-01T06:29:30;148877.88;;;6.42;100.00
6599;BME280;3335;43.198;27.918;2023-03-01T06:31:57;148885.38;;;6.45;100.00
6599;BME280;3335;43.198;27.918;2023-03-01T06:34:24;148879.13;;;6.42;100.00
6599;BME280;3335;43.198;27.918;2023-03-01T06:36:50;148892.84;;;6.48;100.00
6599;BME280;3335;43.198;27.918;2023-03-01T06:39:17;148872.94;;;6.40;100.00
6599;BME280;3335;43.198;27.918;2023-03-01T06:41:46;148880.38;;;6.43;100.00
6599;BME280;3335;43.198;27.918;2023-03-01T06:44:13;148872.94;;;6.40;100.00
6599;BME280;3335;43.198;27.918;2023-03-01T06:46:40;148875.41;;;6.41;100.00
6599;BME280;3335;43.198;27.918;2023-03-01T06:49:07;148879.13;;;6.42;100.00
6599;BME280;3335;43.198;27.918;2023-03-01T06:51:35;148877.88;;;6.42;100.00
6599;BME280;3335;43.198;27.918;2023-03-01T06:54:03;148877.88;;;6.42;100.00
6599;BME280;3335;43.198;27.918;2023-03-01T06:56:30;148887.88;;;6.46;100.00
6599;BME280;3335;43.198;27.918;2023-03-01T06:58:59;148897.84;;;6.50;100.00
6599;BME280;3335;43.198;27.918;2023-03-01T07:01:26;148897.84;;;6.50;100.00
6599;BME280;3335;43.198;27.918;2023-03-01T07:03:53;148875.41;;;6.41;100.00
6599;BME280;3335;43.198;27.918;2023-03-01T07:06:20;148920.25;;;6.59;100.00
6599;BME280;3335;43.198;27.918;2023-03-01T07:08:47;148894.09;;;6.48;100.00
6599;BME280;3335;43.198;27.918;2023-03-01T07:11:14;148900.34;;;6.51;100.00
6599;BME280;3335;43.198;27.918;2023-03-01T07:13:41;148900.34;;;6.51;100.00
6599;BME280;3335;43.198;27.918;2023-03-01T07:16:10;148880.38;;;6.43;100.00
6599;BME280;3335;43.198;27.918;2023-03-01T07:18:37;148897.84;;;6.50;100.00
6599;BME280;3335;43.198;27.918;2023-03-01T07:21:05;148902.78;;;6.52;100.00
6599;BME280;3335;43.198;27.918;2023-03-01T07:23:32;148887.88;;;6.46;100.00
6599;BME280;3335;43.198;27.918;2023-03-01T07:25:59;148904.03;;;6.52;100.00
6599;BME280;3335;43.198;27.918;2023-03-01T07:28:26;148927.69;;;6.62;100.00
6599;BME280;3335;43.198;27.918;2023-03-01T07:30:54;148937.66;;;6.66;100.00
6599;BME280;3335;43.198;27.918;2023-03-01T07:33:22;148958.88;;;6.75;100.00
6599;BME280;3335;43.198;27.918;2023-03-01T07:35:56;148980.03;;;6.83;100.00
6599;BME280;3335;43.198;27.918;2023-03-01T07:38:23;148970.06;;;6.79;100.00
6599;BME280;3335;43.198;27.918;2023-03-01T07:40:50;148946.41;;;6.70;100.00
6599;BME280;3335;43.198;27.918;2023-03-01T07:43:17;148960.06;;;6.75;100.00
6599;BME280;3335;43.198;27.918;2023-03-01T07:45:44;148967.56;;;6.78;100.00
6599;BME280;3335;43.198;27.918;2023-03-01T07:48:11;148980.03;;;6.83;100.00
6599;BME280;3335;43.198;27.918;2023-03-01T07:50:39;148987.50;;;6.86;100.00
6599;BME280;3335;43.198;27.918;2023-03-01T07:53:06;148960.06;;;6.75;100.00
6599;BME280;3335;43.198;27.918;2023-03-01T07:55:33;148947.63;;;6.70;100.00
6599;BME280;3335;43.198;27.918;2023-03-01T07:58:00;148948.88;;;6.71;100.00
6599;BME280;3335;43.198;27.918;2023-03-01T08:00:27;148985.00;;;6.85;100.00
6599;BME280;3335;43.198;27.918;2023-03-01T08:02:54;148992.50;;;6.88;100.00
6599;BME280;3335;43.198;27.918;2023-03-01T08:05:21;149004.94;;;6.93;100.00
6599;BME280;3335;43.198;27.918;2023-03-01T08:07:49;149002.44;;;6.92;100.00
6599;BME280;3335;43.198;27.918;2023-03-01T08:10:17;148975.03;;;6.81;100.00
6599;BME280;3335;43.198;27.918;2023-03-01T08:12:44;148987.50;;;6.86;100.00
6599;BME280;3335;43.198;27.918;2023-03-01T08:15:12;149001.19;;;6.92;100.00
6599;BME280;3335;43.198;27.918;2023-03-01T08:17:39;149002.44;;;6.92;100.00
6599;BME280;3335;43.198;27.918;2023-03-01T08:20:07;148999.94;;;6.91;100.00
6599;BME280;3335;43.198;27.918;2023-03-01T08:22:37;149018.63;;;6.99;100.00
6599;BME280;3335;43.198;27.918;2023-03-01T08:25:06;149033.56;;;7.05;100.00
6599;BME280;3335;43.198;27.918;2023-03-01T08:27:33;149027.38;;;7.02;100.00
6599;BME280;3335;43.198;27.918;2023-03-01T08:30:00;149052.28;;;7.13;100.00
6599;BME280;3335;43.198;27.918;2023-03-01T08:32:27;149078.44;;;7.23;100.00
6599;BME280;3335;43.198;27.918;2023-03-01T08:34:54;149109.59;;;7.36;100.00
6599;BME280;3335;43.198;27.918;2023-03-01T08:37:21;149102.09;;;7.33;100.00
6599;BME280;3335;43.198;27.918;2023-03-01T08:39:48;149142.00;;;7.49;100.00
6599;BME280;3335;43.198;27.918;2023-03-01T08:42:16;149144.50;;;7.50;100.00
6599;BME280;3335;43.198;27.918;2023-03-01T08:44:43;149129.53;;;7.44;100.00
6599;BME280;3335;43.198;27.918;2023-03-01T08:47:10;149132.03;;;7.45;100.00
6599;BME280;3335;43.198;27.918;2023-03-01T08:49:37;149149.47;;;7.52;100.00
6599;BME280;3335;43.198;27.918;2023-03-01T08:52:04;149132.03;;;7.45;100.00
6599;BME280;3335;43.198;27.918;2023-03-01T08:54:31;149137.00;;;7.47;100.00
6599;BME280;3335;43.198;27.918;2023-03-01T08:56:58;149129.53;;;7.44;100.00
6599;BME280;3335;43.198;27.918;2023-03-01T08:59:27;149122.06;;;7.41;100.00
6599;BME280;3335;43.198;27.918;2023-03-01T09:01:55;149108.34;;;7.35;100.00
6599;BME280;3335;43.198;27.918;2023-03-01T09:04:22;149067.22;;;7.19;100.00
6599;BME280;3335;43.198;27.918;2023-03-01T09:06:49;149119.56;;;7.40;100.00
6599;BME280;3335;43.198;27.918;2023-03-01T09:09:17;149132.03;;;7.45;100.00
6599;BME280;3335;43.198;27.918;2023-03-01T09:11:45;149169.44;;;7.60;100.00
6599;BME280;3335;43.198;27.918;2023-03-01T09:14:12;149154.47;;;7.54;100.00
6599;BME280;3335;43.198;27.918;2023-03-01T09:16:40;149154.47;;;7.54;100.00
6599;BME280;3335;43.198;27.918;2023-03-01T09:19:07;149093.38;;;7.29;100.00
6599;BME280;3335;43.198;27.918;2023-03-01T09:21:34;149057.25;;;7.15;100.00
6599;BME280;3335;43.198;27.918;2023-03-01T09:24:01;149065.97;;;7.18;100.00
6599;BME280;3335;43.198;27.918;2023-03-01T09:26:28;149049.78;;;7.12;100.00
6599;BME280;3335;43.198;27.918;2023-03-01T09:28:56;149047.28;;;7.11;100.00
6599;BME280;3335;43.198;27.918;2023-03-01T09:31:24;149072.22;;;7.21;100.00
6599;BME280;3335;43.198;27.918;2023-03-01T09:33:53;149089.63;;;7.28;100.00
6599;BME280;3335;43.198;27.918;2023-03-01T09:36:22;149089.63;;;7.28;100.00
6599;BME280;3335;43.198;27.918;2023-03-01T09:38:49;149039.84;;;7.08;100.00
6599;BME280;3335;43.198;27.918;2023-03-01T09:41:38;149061.00;;;7.16;100.00
6599;BME280;3335;43.198;27.918;2023-03-01T09:44:15;149048.53;;;7.11;100.00
6599;BME280;3335;43.198;27.918;2023-03-01T09:46:45;148987.50;;;6.86;100.00
6599;BME280;3335;43.198;27.918;2023-03-01T09:49:15;149061.00;;;7.16;100.00
6599;BME280;3335;43.198;27.918;2023-03-01T09:51:52;149090.88;;;7.28;100.00
6599;BME280;3335;43.198;27.918;2023-03-01T09:54:20;149092.13;;;7.29;100.00
6599;BME280;3335;43.198;27.918;2023-03-01T09:56:57;149084.69;;;7.26;100.00
6599;BME280;3335;43.198;27.918;2023-03-01T09:59:30;149062.25;;;7.17;100.00
6599;BME280;3335;43.198;27.918;2023-03-01T10:02:21;149059.75;;;7.16;100.00
6599;BME280;3335;43.198;27.918;2023-03-01T10:04:52;149064.72;;;7.18;100.00
6599;BME280;3335;43.198;27.918;2023-03-01T10:07:27;149048.53;;;7.11;100.00
6599;BME280;3335;43.198;27.918;2023-03-01T10:09:59;149042.28;;;7.09;100.00
6599;BME280;3335;43.198;27.918;2023-03-01T10:12:34;149014.91;;;6.97;100.00
6599;BME280;3335;43.198;27.918;2023-03-01T10:15:06;148917.75;;;6.58;100.00
6599;BME280;3335;43.198;27.918;2023-03-01T10:17:39;149032.34;;;7.04;100.00
6599;BME280;3335;43.198;27.918;2023-03-01T10:20:19;148991.25;;;6.88;100.00
6599;BME280;3335;43.198;27.918;2023-03-01T10:22:47;149027.38;;;7.02;100.00
6599;BME280;3335;43.198;27.918;2023-03-01T10:25:28;149070.97;;;7.20;100.00
6599;BME280;3335;43.198;27.918;2023-03-01T10:28:02;149032.34;;;7.04;100.00
6599;BME280;3335;43.198;27.918;2023-03-01T10:30:35;148980.03;;;6.83;100.00
6599;BME280;3335;43.198;27.918;2023-03-01T10:33:10;149022.38;;;7.00;100.00
6599;BME280;3335;43.198;27.918;2023-03-01T10:35:41;149004.94;;;6.93;100.00
6599;BME280;3335;43.198;27.918;2023-03-01T10:38:11;149019.88;;;6.99;100.00
6599;BME280;3335;43.198;27.918;2023-03-01T10:40:51;149032.34;;;7.04;100.00
6599;BME280;3335;43.198;27.918;2023-03-01T10:43:19;149039.84;;;7.08;100.00
6599;BME280;3335;43.198;27.918;2023-03-01T10:45:46;149031.06;;;7.04;100.00
6599;BME280;3335;43.198;27.918;2023-03-01T10:48:14;149074.72;;;7.22;100.00
6599;BME280;3335;43.198;27.918;2023-03-01T10:50:45;149084.69;;;7.26;100.00
6599;BME280;3335;43.198;27.918;2023-03-01T10:53:27;149112.06;;;7.37;100.00
6599;BME280;3335;43.198;27.918;2023-03-01T10:55:59;149103.34;;;7.33;100.00
6599;BME280;3335;43.198;27.918;2023-03-01T10:58:28;149074.72;;;7.22;100.00
6599;BME280;3335;43.198;27.918;2023-03-01T11:00:56;149113.31;;;7.37;100.00
6599;BME280;3335;43.198;27.918;2023-03-01T11:03:25;149117.06;;;7.39;100.00
6599;BME280;3335;43.198;27.918;2023-03-01T11:05:58;149088.38;;;7.27;100.00
6599;BME280;3335;43.198;27.918;2023-03-01T11:08:39;149110.84;;;7.36;100.00
6599;BME280;3335;43.198;27.918;2023-03-01T11:11:23;149103.34;;;7.33;100.00
6599;BME280;3335;43.198;27.918;2023-03-01T11:13:58;149084.69;;;7.26;100.00
6599;BME280;3335;43.198;27.918;2023-03-01T11:16:33;149103.34;;;7.33;100.00
6599;BME280;3335;43.198;27.918;2023-03-01T11:19:20;149082.19;;;7.25;100.00
6599;BME280;3335;43.198;27.918;2023-03-01T11:21:55;149047.28;;;7.11;100.00
6599;BME280;3335;43.198;27.918;2023-03-01T11:24:28;149019.88;;;6.99;100.00
6599;BME280;3335;43.198;27.918;2023-03-01T11:26:59;149027.38;;;7.02;100.00
6599;BME280;3335;43.198;27.918;2023-03-01T11:29:34;149059.75;;;7.16;100.00
6599;BME280;3335;43.198;27.918;2023-03-01T11:32:05;149089.63;;;7.28;100.00
6599;BME280;3335;43.198;27.918;2023-03-01T11:34:42;149107.09;;;7.35;100.00
6599;BME280;3335;43.198;27.918;2023-03-01T11:37:19;149127.03;;;7.43;100.00
6599;BME280;3335;43.198;27.918;2023-03-01T11:39:53;149140.75;;;7.48;100.00
6599;BME280;3335;43.198;27.918;2023-03-01T11:42:29;149127.03;;;7.43;100.00
6599;BME280;3335;43.198;27.918;2023-03-01T11:45:03;149137.00;;;7.47;100.00
6599;BME280;3335;43.198;27.918;2023-03-01T11:47:49;149149.47;;;7.52;100.00
6599;BME280;3335;43.198;27.918;2023-03-01T11:50:28;149109.59;;;7.36;100.00
6599;BME280;3335;43.198;27.918;2023-03-01T11:53:05;149134.50;;;7.46;100.00
6599;BME280;3335;43.198;27.918;2023-03-01T11:55:46;149139.50;;;7.48;100.00
6599;BME280;3335;43.198;27.918;2023-03-01T11:58:31;149132.03;;;7.45;100.00
6599;BME280;3335;43.198;27.918;2023-03-01T12:01:09;149134.50;;;7.46;100.00
6599;BME280;3335;43.198;27.918;2023-03-01T12:03:53;149135.75;;;7.46;100.00
6599;BME280;3335;43.198;27.918;2023-03-01T12:06:46;149117.06;;;7.39;100.00
6599;BME280;3335;43.198;27.918;2023-03-01T12:09:24;149119.56;;;7.40;100.00
6599;BME280;3335;43.198;27.918;2023-03-01T12:12:26;149133.28;;;7.45;100.00
6599;BME280;3335;43.198;27.918;2023-03-01T12:15:18;149103.34;;;7.33;100.00
6599;BME280;3335;43.198;27.918;2023-03-01T12:18:03;149107.09;;;7.35;100.00
6599;BME280;3335;43.198;27.918;2023-03-01T12:20:35;149104.59;;;7.34;100.00
6599;BME280;3335;43.198;27.918;2023-03-01T12:23:25;149064.72;;;7.18;100.00
6599;BME280;3335;43.198;27.918;2023-03-01T12:25:58;149105.84;;;7.34;100.00
6599;BME280;3335;43.198;27.918;2023-03-01T12:28:43;149068.47;;;7.19;100.00
6599;BME280;3335;43.198;27.918;2023-03-01T12:31:34;149139.50;;;7.48;100.00
6599;BME280;3335;43.198;27.918;2023-03-01T12:34:14;149122.06;;;7.41;100.00
6599;BME280;3335;43.198;27.918;2023-03-01T12:36:56;149115.81;;;7.38;100.00
6599;BME280;3335;43.198;27.918;2023-03-01T12:39:39;149114.56;;;7.38;100.00
6599;BME280;3335;43.198;27.918;2023-03-01T12:42:17;149099.59;;;7.32;100.00
6599;BME280;3335;43.198;27.918;2023-03-01T12:45:02;149104.59;;;7.34;100.00
6599;BME280;3335;43.198;27.918;2023-03-01T12:47:44;149107.09;;;7.35;100.00
6599;BME280;3335;43.198;27.918;2023-03-01T12:50:20;149099.59;;;7.32;100.00
6599;BME280;3335;43.198;27.918;2023-03-01T12:52:50;149083.44;;;7.25;100.00
6599;BME280;3335;43.198;27.918;2023-03-01T12:55:27;149103.34;;;7.33;100.00
6599;BME280;3335;43.198;27.918;2023-03-01T12:58:02;149107.09;;;7.35;100.00
6599;BME280;3335;43.198;27.918;2023-03-01T13:00:34;149087.19;;;7.27;100.00
6599;BME280;3335;43.198;27.918;2023-03-01T13:03:10;149097.16;;;7.31;100.00
6599;BME280;3335;43.198;27.918;2023-03-01T13:05:47;149079.69;;;7.24;100.00
6599;BME280;3335;43.198;27.918;2023-03-01T13:08:27;149082.19;;;7.25;100.00
6599;BME280;3335;43.198;27.918;2023-03-01T13:10:58;149077.16;;;7.23;100.00
6599;BME280;3335;43.198;27.918;2023-03-01T13:13:29;149114.56;;;7.38;100.00
6599;BME280;3335;43.198;27.918;2023-03-01T13:15:57;149115.81;;;7.38;100.00
6599;BME280;3335;43.198;27.918;2023-03-01T13:18:30;149118.31;;;7.39;100.00